Time;durP1;ratioP1;P1;durP2;ratioP2;P2;SDS_P1;SDS_P2;PMS_P1;PMS_P2;Temp;Humidity;BMP_temperature;BMP_pressure;BME280_temperature;BME280_humidity;BME280_pressure;Samples;Min_cycle;Max_cycle;Signal;HPM_P1;HPM_P2
2023/02/28 00:07:40;;;;;;;11.10;8.60;;;;;;;-3.63;67.65;100866.18;449353;1252;142583;-63
2023/02/28 00:17:46;;;;;;;12.70;6.70;;;;;;;-3.55;67.12;100872.45;450132;1252;184581;-63
2023/02/28 00:27:52;;;;;;;11.10;6.90;;;;;;;-3.48;66.40;100873.25;443371;1252;142279;-62
2023/02/28 00:37:58;;;;;;;8.80;6.00;;;;;;;-3.51;65.87;100862.42;450110;1252;141779;-62
2023/02/28 00:48:04;;;;;;;7.40;5.80;;;;;;;-3.64;65.44;100868.06;449903;1252;142117;-63
2023/02/28 00:58:10;;;;;;;8.10;5.70;;;;;;;-3.83;65.58;100866.75;443926;1252;143226;-63
2023/02/28 01:08:16;;;;;;;7.90;6.30;;;;;;;-4.07;65.96;100867.90;442278;1252;142765;-64
2023/02/28 01:18:24;;;;;;;12.30;8.50;;;;;;;-4.37;66.44;100870.13;432594;1256;142205;-62
2023/02/28 01:28:30;;;;;;;12.90;7.20;;;;;;;-4.72;67.14;100862.13;432265;1253;146061;-62
2023/02/28 01:38:36;;;;;;;11.50;7.60;;;;;;;-5.01;67.55;100869.25;445109;1252;143734;-63
2023/02/28 01:48:47;;;;;;;13.90;8.60;;;;;;;-5.26;68.14;100865.15;440369;1251;142699;-62
2023/02/28 01:58:55;;;;;;;13.50;9.50;;;;;;;-5.45;68.61;100861.33;443793;1252;207877;-63
2023/02/28 02:09:00;;;;;;;14.40;10.40;;;;;;;-5.69;69.48;100857.73;436595;1256;142650;-63
2023/02/28 02:19:29;;;;;;;12.70;9.70;;;;;;;-5.88;70.21;100862.23;432336;1253;142740;-63
2023/02/28 02:29:58;;;;;;;13.40;9.00;;;;;;;-5.99;70.49;100858.92;437613;1252;142532;-64
2023/02/28 02:40:11;;;;;;;12.90;9.20;;;;;;;-6.10;70.85;100860.38;448552;1252;143708;-64
2023/02/28 02:50:23;;;;;;;11.80;8.70;;;;;;;-6.13;71.27;100857.23;440178;1252;142165;-64
2023/02/28 03:00:35;;;;;;;11.50;8.20;;;;;;;-6.11;71.68;100859.51;445373;1252;142350;-63
2023/02/28 03:10:45;;;;;;;12.00;9.70;;;;;;;-6.03;71.99;100864.79;441359;1252;143350;-64
2023/02/28 03:21:03;;;;;;;14.00;9.70;;;;;;;-6.00;72.06;100868.77;434676;1256;142501;-63
2023/02/28 03:31:19;;;;;;;13.70;9.80;;;;;;;-6.07;71.88;100871.36;438681;1253;143280;-63
2023/02/28 03:41:28;;;;;;;12.70;9.40;;;;;;;-6.25;72.13;100875.52;440140;1251;141572;-63
2023/02/28 03:51:36;;;;;;;16.10;12.70;;;;;;;-6.34;72.41;100883.64;441022;1252;143397;-64
2023/02/28 04:01:45;;;;;;;16.10;11.70;;;;;;;-6.42;72.66;100890.59;436923;1253;200718;-63
2023/02/28 04:11:53;;;;;;;16.30;11.70;;;;;;;-6.45;73.15;100898.52;446647;1251;142699;-63
2023/02/28 04:21:58;;;;;;;14.20;10.50;;;;;;;-6.46;73.16;100895.44;440028;1252;143001;-63
2023/02/28 04:32:05;;;;;;;15.30;9.90;;;;;;;-6.44;73.52;100895.83;437412;1252;146193;-63
2023/02/28 04:42:12;;;;;;;12.40;9.60;;;;;;;-6.37;73.53;100898.89;442189;1256;142946;-63
2023/02/28 04:52:17;;;;;;;11.30;8.50;;;;;;;-6.38;73.58;100901.95;437262;1252;142281;-63
2023/02/28 05:02:24;;;;;;;10.20;8.50;;;;;;;-6.40;73.70;100901.05;446226;1252;143507;-63
2023/02/28 05:12:29;;;;;;;11.90;9.40;;;;;;;-6.35;73.89;100897.08;450241;1252;143458;-63
2023/02/28 05:22:35;;;;;;;12.10;9.80;;;;;;;-6.25;73.83;100905.36;449439;1252;142744;-63
2023/02/28 05:32:42;;;;;;;13.70;10.60;;;;;;;-6.21;73.76;100914.14;446928;1252;147122;-62
2023/02/28 05:42:50;;;;;;;11.30;10.10;;;;;;;-6.13;73.74;100916.92;434858;1256;165059;-62
2023/02/28 05:52:57;;;;;;;14.70;8.60;;;;;;;-5.96;73.71;100923.29;440381;1250;142549;-64
2023/02/28 06:03:02;;;;;;;14.90;8.70;;;;;;;-5.66;73.30;100922.64;450286;1250;143105;-63
2023/02/28 06:13:08;;;;;;;14.10;9.30;;;;;;;-5.30;73.02;100937.95;449532;1250;142937;-63
2023/02/28 06:23:14;;;;;;;14.70;10.10;;;;;;;-4.88;72.66;100947.06;450331;1250;143637;-63
2023/02/28 06:33:19;;;;;;;18.20;10.90;;;;;;;-4.18;72.21;100964.84;438327;1256;143639;-62
2023/02/28 06:43:26;;;;;;;15.50;11.50;;;;;;;-2.09;71.28;100964.89;433069;1256;143508;-64
2023/02/28 06:53:32;;;;;;;17.80;10.20;;;;;;;2.28;67.00;100964.00;450338;1253;146538;-63
2023/02/28 07:03:38;;;;;;;17.60;10.90;;;;;;;6.41;62.92;100960.08;447983;1253;142408;-63
2023/02/28 07:13:44;;;;;;;11.80;8.80;;;;;;;10.37;59.15;100955.56;440229;1252;211409;-63
2023/02/28 07:23:51;;;;;;;9.90;6.80;;;;;;;13.00;54.34;100951.06;441340;1253;141804;-63
2023/02/28 07:33:57;;;;;;;8.40;6.10;;;;;;;14.89;50.90;100949.79;436310;1256;141461;-63
2023/02/28 07:44:03;;;;;;;6.50;5.80;;;;;;;15.82;46.81;100952.00;434567;1253;142927;-63
2023/02/28 07:54:08;;;;;;;8.50;7.80;;;;;;;16.66;44.47;100952.19;442084;1253;142163;-64
2023/02/28 08:04:14;;;;;;;7.40;6.50;;;;;;;17.28;42.69;100949.92;437395;1253;141795;-64
2023/02/28 08:14:20;;;;;;;6.70;6.10;;;;;;;17.92;40.13;100944.14;445960;1253;143095;-64
2023/02/28 08:24:26;;;;;;;5.90;5.30;;;;;;;18.93;39.62;100942.14;450437;1252;143322;-64
2023/02/28 08:34:32;;;;;;;9.20;6.30;;;;;;;20.39;38.08;100945.16;449620;1253;141648;-64
2023/02/28 08:44:37;;;;;;;8.50;6.40;;;;;;;21.92;37.13;100936.18;450350;1253;142307;-64
2023/02/28 08:54:42;;;;;;;;;;;;;;;22.65;35.21;100933.13;436518;1254;141475;-63
2023/02/28 09:04:47;;;;;;;7.30;6.60;;;;;;;21.75;32.69;100934.45;439921;1253;128533;-62
2023/02/28 09:14:53;;;;;;;6.00;5.30;;;;;;;21.68;33.25;100933.73;436921;1253;140795;-64
2023/02/28 09:24:57;;;;;;;;;;;;;;;22.56;33.01;100934.02;446276;1253;142453;-64
2023/02/28 09:35:03;;;;;;;11.60;5.80;;;;;;;20.43;32.09;100936.18;450503;1253;128600;-63
2023/02/28 09:45:25;;;;;;;8.00;5.80;;;;;;;13.44;32.57;100940.22;450289;1250;142289;-63
2023/02/28 09:55:34;;;;;;;9.90;7.10;;;;;;;8.66;34.85;100938.29;449597;1251;142649;-63
2023/02/28 10:05:57;;;;;;;8.00;6.40;;;;;;;5.97;37.29;100940.67;450377;1253;151289;-63
2023/02/28 10:16:07;;;;;;;9.10;5.50;;;;;;;4.95;38.63;100941.40;449554;1253;142511;-63
2023/02/28 10:26:17;;;;;;;10.60;6.10;;;;;;;4.41;39.65;100950.68;450468;1253;142191;-63
2023/02/28 10:36:23;;;;;;;10.40;6.10;;;;;;;3.82;40.38;100950.71;450178;1252;141011;-63
2023/02/28 10:46:34;;;;;;;9.20;6.30;;;;;;;3.36;41.27;100947.16;449596;1252;142081;-62
2023/02/28 10:56:40;;;;;;;8.70;5.80;;;;;;;2.75;41.96;100944.53;450384;1253;140799;-63
2023/02/28 11:06:46;;;;;;;8.60;6.00;;;;;;;2.45;42.61;100945.33;437523;1253;140951;-63
2023/02/28 11:16:53;;;;;;;7.10;5.90;;;;;;;2.24;43.35;100945.85;450322;1256;141791;-63
2023/02/28 11:26:57;;;;;;;;;;;;;;;2.05;43.96;100935.45;450275;1256;144939;-63
2023/02/28 11:37:05;;;;;;;7.40;6.50;;;;;;;1.98;44.35;100920.98;445384;1256;128723;-63
2023/02/28 11:47:18;;;;;;;9.60;7.10;;;;;;;2.29;44.54;100912.98;450223;1254;186853;-63
2023/02/28 11:57:36;;;;;;;7.90;5.80;;;;;;;2.45;44.55;100911.63;438093;1256;141703;-62
2023/02/28 12:07:53;;;;;;;9.30;6.60;;;;;;;2.51;44.90;100899.81;449672;1252;209858;-63
2023/02/28 12:18:20;;;;;;;10.50;7.00;;;;;;;2.52;45.02;100889.27;450327;1253;141390;-63
2023/02/28 12:28:32;;;;;;;10.40;7.20;;;;;;;2.32;45.44;100890.48;445964;1255;143804;-62
2023/02/28 12:38:42;;;;;;;7.80;5.80;;;;;;;2.19;45.76;100881.27;441613;1254;143949;-63
2023/02/28 12:48:53;;;;;;;9.70;6.90;;;;;;;2.06;46.03;100872.04;446016;1253;161601;-63
2023/02/28 12:59:03;;;;;;;9.70;7.00;;;;;;;1.81;46.42;100864.29;446347;1253;142310;-64
2023/02/28 13:09:15;;;;;;;8.40;7.10;;;;;;;1.39;46.89;100857.48;445104;1253;141507;-64
2023/02/28 13:19:23;;;;;;;6.90;5.40;;;;;;;1.31;47.09;100848.04;449558;1253;141677;-63
2023/02/28 13:29:34;;;;;;;8.10;7.00;;;;;;;1.24;47.31;100838.41;445588;1252;142824;-63
2023/02/28 13:39:51;;;;;;;8.40;7.40;;;;;;;1.24;47.26;100839.97;445251;1254;141531;-63
2023/02/28 13:50:21;;;;;;;8.30;7.00;;;;;;;1.23;47.38;100829.96;449411;1254;207821;-63
2023/02/28 14:00:41;;;;;;;9.30;7.20;;;;;;;1.28;47.16;100826.66;450078;1253;142091;-63
2023/02/28 14:10:49;;;;;;;8.70;7.10;;;;;;;1.23;47.27;100820.98;449822;1252;195496;-63
2023/02/28 14:21:02;;;;;;;12.30;7.90;;;;;;;1.31;47.41;100810.08;450252;1252;141218;-64
2023/02/28 14:31:13;;;;;;;10.50;7.50;;;;;;;1.39;47.54;100805.54;446936;1253;141397;-64
2023/02/28 14:41:29;;;;;;;9.50;7.20;;;;;;;1.41;47.56;100805.52;450209;1254;142182;-62
2023/02/28 14:51:35;;;;;;;8.40;7.10;;;;;;;1.28;47.55;100800.27;450266;1252;141674;-62
2023/02/28 15:01:41;;;;;;;8.30;6.90;;;;;;;1.22;47.86;100797.54;449502;1253;142566;-63
2023/02/28 15:11:50;;;;;;;13.30;7.70;;;;;;;1.25;47.96;100793.54;450343;1252;143368;-63
2023/02/28 15:22:00;;;;;;;9.30;7.30;;;;;;;1.09;47.88;100784.67;449453;1252;141861;-63
2023/02/28 15:32:08;;;;;;;11.10;7.60;;;;;;;0.87;48.32;100771.67;450301;1252;141523;-63
2023/02/28 15:42:19;;;;;;;11.00;7.90;;;;;;;0.67;48.62;100769.19;450229;1252;141355;-62
2023/02/28 15:52:29;;;;;;;10.60;7.20;;;;;;;0.43;49.06;100770.30;449461;1252;141841;-63
2023/02/28 16:02:37;;;;;;;12.80;8.30;;;;;;;0.11;49.44;100771.75;450226;1252;141632;-63
2023/02/28 16:12:44;;;;;;;13.60;8.60;;;;;;;-0.25;50.35;100777.14;449937;1252;142062;-63
2023/02/28 16:22:49;;;;;;;22.60;12.20;;;;;;;-0.60;51.51;100787.09;450235;1252;142600;-63
2023/02/28 16:32:56;;;;;;;26.30;14.90;;;;;;;-0.79;53.24;100790.16;450304;1252;142895;-64
2023/02/28 16:43:05;;;;;;;19.70;13.30;;;;;;;-1.03;54.42;100803.17;449322;1252;142754;-63
2023/02/28 16:53:11;;;;;;;12.70;10.10;;;;;;;-1.32;55.51;100818.69;450292;1253;142091;-64
2023/02/28 17:03:24;;;;;;;29.10;18.90;;;;;;;-1.60;56.16;100826.80;450289;1251;142340;-63
2023/02/28 17:13:38;;;;;;;18.90;14.20;;;;;;;-1.90;57.22;100837.58;449458;1252;144103;-63
2023/02/28 17:23:45;;;;;;;24.70;14.30;;;;;;;-2.16;57.93;100843.04;450339;1252;151396;-63
2023/02/28 17:33:50;;;;;;;23.90;15.70;;;;;;;-2.29;59.06;100845.16;449514;1251;142355;-63
2023/02/28 17:43:56;;;;;;;27.00;18.30;;;;;;;-2.41;59.57;100839.56;450131;1252;141803;-63
2023/02/28 17:54:02;;;;;;;29.20;21.00;;;;;;;-2.61;60.37;100832.34;450290;1251;143901;-64
2023/02/28 18:04:08;;;;;;;31.20;19.30;;;;;;;-2.95;60.98;100833.16;449303;1251;141634;-62
2023/02/28 18:14:13;;;;;;;26.60;17.50;;;;;;;-3.27;61.97;100833.30;446571;1252;142358;-65
2023/02/28 18:24:20;;;;;;;51.70;20.50;;;;;;;-3.54;63.20;100834.46;450232;1251;141150;-64
2023/02/28 18:34:27;;;;;;;40.10;20.50;;;;;;;-3.79;64.33;100834.46;449503;1252;142475;-62
2023/02/28 18:44:32;;;;;;;41.20;21.90;;;;;;;-4.03;65.35;100844.52;450192;1252;143286;-63
2023/02/28 18:54:38;;;;;;;39.30;23.30;;;;;;;-4.20;65.97;100852.29;450285;1252;142968;-63
2023/02/28 19:04:45;;;;;;;41.10;23.60;;;;;;;-4.40;66.42;100840.50;449723;1252;210108;-63
2023/02/28 19:14:51;;;;;;;41.10;24.40;;;;;;;-4.55;67.13;100831.17;450226;1252;144955;-63
2023/02/28 19:24:57;;;;;;;60.20;32.90;;;;;;;-4.69;67.77;100822.73;449436;1252;142894;-63
2023/02/28 19:35:01;;;;;;;;;;;;;;;-4.83;68.27;100822.64;450291;1252;142306;-64
2023/02/28 19:45:13;;;;;;;77.40;41.50;;;;;;;-4.94;69.20;100828.39;450322;1252;130014;-64
2023/02/28 19:55:20;;;;;;;93.20;56.10;;;;;;;-5.10;69.62;100829.46;449226;1252;142687;-62
2023/02/28 20:05:25;;;;;;;91.50;51.60;;;;;;;-5.20;70.17;100827.37;450059;1252;143649;-64
2023/02/28 20:15:31;;;;;;;;;;;;;;;-5.34;70.74;100823.50;450043;1252;143681;-63
2023/02/28 20:25:38;;;;;;;;;;;;;;;-5.51;71.07;100822.63;449530;1252;132661;-63
2023/02/28 20:35:44;;;;;;;103.70;58.50;;;;;;;-5.65;71.49;100826.77;450243;1252;128276;-64
2023/02/28 20:45:53;;;;;;;111.40;66.40;;;;;;;-5.77;71.87;100814.20;449232;1252;144150;-64
2023/02/28 20:56:01;;;;;;;140.40;75.80;;;;;;;-5.91;72.27;100818.84;450063;1252;142852;-64
2023/02/28 21:06:07;;;;;;;158.40;96.60;;;;;;;-5.99;72.72;100830.44;450076;1252;143028;-64
2023/02/28 21:16:16;;;;;;;125.70;75.40;;;;;;;-6.02;73.48;100836.52;449177;1253;145226;-63
2023/02/28 21:26:23;;;;;;;147.20;83.30;;;;;;;-6.08;73.78;100843.21;449884;1252;143269;-63
2023/02/28 21:36:32;;;;;;;138.30;76.20;;;;;;;-6.04;74.37;100854.20;449391;1252;143524;-63
2023/02/28 21:46:37;;;;;;;136.40;76.00;;;;;;;-6.12;74.42;100846.20;449297;1253;144524;-63
2023/02/28 21:56:43;;;;;;;125.00;80.20;;;;;;;-6.27;74.40;100836.27;450264;1252;143243;-62
2023/02/28 22:06:51;;;;;;;134.80;82.10;;;;;;;-6.40;74.72;100825.89;449353;1252;144897;-63
2023/02/28 22:16:57;;;;;;;170.10;95.30;;;;;;;-6.56;74.81;100835.88;450283;1252;143333;-64
2023/02/28 22:27:03;;;;;;;202.60;102.90;;;;;;;-6.62;75.40;100842.55;450197;1253;142837;-64
2023/02/28 22:37:09;;;;;;;142.60;84.50;;;;;;;-6.65;75.94;100845.52;449370;1253;143494;-62
2023/02/28 22:47:14;;;;;;;138.30;86.30;;;;;;;-6.79;75.78;100854.85;450153;1253;143492;-63
2023/02/28 22:57:20;;;;;;;135.40;78.90;;;;;;;-6.91;75.96;100859.47;450110;1252;142917;-63
2023/02/28 23:07:26;;;;;;;132.70;85.90;;;;;;;-7.02;76.17;100855.42;449183;1253;143749;-63
2023/02/28 23:17:33;;;;;;;135.40;86.60;;;;;;;-7.13;76.37;100855.28;444486;1253;143285;-63
2023/02/28 23:27:39;;;;;;;147.50;92.00;;;;;;;-7.26;76.42;100860.20;443239;1252;143469;-63
2023/02/28 23:37:45;;;;;;;159.50;99.30;;;;;;;-7.36;76.62;100860.23;449751;1252;199725;-63
2023/02/28 23:47:51;;;;;;;162.50;100.00;;;;;;;-7.47;76.81;100850.03;450279;1252;142603;-63
2023/02/28 23:57:57;;;;;;;184.40;117.50;;;;;;;-7.59;76.95;100847.33;434274;1255;143448;-63
